Time;durP1;ratioP1;P1;durP2;ratioP2;P2;SDS_P1;SDS_P2;PMS_P1;PMS_P2;Temp;Humidity;BMP_temperature;BMP_pressure;BME280_temperature;BME280_humidity;BME280_pressure;Samples;Min_cycle;Max_cycle;Signal;HPM_P1;HPM_P2
2021/12/08 00:00:57;;;;;;;4.00;2.97;;;;;;;;;;143728;596;46029;-57
2021/12/08 00:03:28;;;;;;;3.85;2.72;;;;;;;;;;143729;570;46012;-57
2021/12/08 00:05:55;;;;;;;2.62;2.42;;;;;;;;;;143733;615;45021;-57
2021/12/08 00:08:26;;;;;;;5.05;2.70;;;;;;;;;;143731;598;46022;-57
2021/12/08 00:13:38;;;;;;;2.80;2.60;;;;;;;;;;143730;604;46020;-57
2021/12/08 00:16:12;;;;;;;3.22;2.90;;;;;;;;;;143731;683;46020;-57
2021/12/08 00:18:46;;;;;;;3.10;2.35;;;;;;;;;;143729;604;46022;-58
2021/12/08 00:21:14;;;;;;;3.25;2.72;;;;;;;;;;143727;581;46021;-57
2021/12/08 00:23:41;;;;;;;6.07;2.53;;;;;;;;;;143731;579;46012;-57
2021/12/08 00:26:08;;;;;;;3.35;2.53;;;;;;;;;;143732;576;46020;-58
2021/12/08 00:28:36;;;;;;;3.00;2.70;;;;;;;;;;143731;589;46023;-57
2021/12/08 00:31:05;;;;;;;6.37;2.47;;;;;;;;;;143727;681;46020;-56
2021/12/08 00:33:33;;;;;;;6.03;2.70;;;;;;;;;;143730;567;46012;-57
2021/12/08 00:36:03;;;;;;;2.72;2.53;;;;;;;;;;143731;605;46021;-57
2021/12/08 00:38:30;;;;;;;2.83;2.62;;;;;;;;;;143728;646;47020;-57
2021/12/08 00:40:57;;;;;;;4.50;2.47;;;;;;;;;;143730;595;46020;-57
2021/12/08 00:43:25;;;;;;;3.72;2.62;;;;;;;;;;143731;567;46012;-56
2021/12/08 00:45:53;;;;;;;6.87;3.03;;;;;;;;;;143733;564;46020;-57
2021/12/08 00:48:21;;;;;;;3.35;2.45;;;;;;;;;;143730;640;46049;-56
2021/12/08 00:50:49;;;;;;;2.70;2.50;;;;;;;;;;143730;577;46012;-57
2021/12/08 00:53:16;;;;;;;2.75;2.55;;;;;;;;;;143729;617;46012;-57
2021/12/08 00:55:43;;;;;;;2.58;2.30;;;;;;;;;;143731;608;46020;-57
2021/12/08 00:58:10;;;;;;;2.50;2.17;;;;;;;;;;143729;606;46023;-57
2021/12/08 01:00:45;;;;;;;6.30;3.10;;;;;;;;;;143729;585;46020;-57
2021/12/08 01:03:14;;;;;;;2.80;2.60;;;;;;;;;;143729;591;46012;-57
2021/12/08 01:05:46;;;;;;;5.97;3.08;;;;;;;;;;143730;622;46021;-56
2021/12/08 01:08:13;;;;;;;3.72;2.87;;;;;;;;;;143728;569;47022;-55
2021/12/08 01:10:43;;;;;;;4.37;3.10;;;;;;;;;;143726;586;46028;-55
2021/12/08 01:13:12;;;;;;;4.87;3.10;;;;;;;;;;143727;572;46012;-57
2021/12/08 01:15:41;;;;;;;4.55;2.47;;;;;;;;;;143732;591;46020;-57
2021/12/08 01:18:08;;;;;;;2.70;2.50;;;;;;;;;;143728;634;47021;-57
2021/12/08 01:20:36;;;;;;;6.05;3.28;;;;;;;;;;143726;609;46021;-56
2021/12/08 01:23:04;;;;;;;4.55;3.05;;;;;;;;;;143730;588;45911;-57
2021/12/08 01:25:31;;;;;;;3.35;3.03;;;;;;;;;;143733;597;46012;-57
2021/12/08 01:27:58;;;;;;;2.92;2.72;;;;;;;;;;143733;572;46023;-57
2021/12/08 01:30:26;;;;;;;2.75;2.50;;;;;;;;;;143728;569;46020;-55
2021/12/08 01:32:53;;;;;;;4.05;3.08;;;;;;;;;;143727;568;46012;-56
2021/12/08 01:35:21;;;;;;;5.60;3.35;;;;;;;;;;143731;567;46013;-56
2021/12/08 01:37:48;;;;;;;2.85;2.65;;;;;;;;;;143729;618;46022;-56
2021/12/08 01:40:16;;;;;;;3.12;2.70;;;;;;;;;;143726;602;46020;-56
2021/12/08 01:42:46;;;;;;;4.72;3.20;;;;;;;;;;143731;622;46012;-56
2021/12/08 01:48:05;;;;;;;2.85;2.65;;;;;;;;;;143729;584;46021;-57
2021/12/08 01:50:33;;;;;;;4.28;3.03;;;;;;;;;;143726;607;46021;-55
2021/12/08 01:53:00;;;;;;;3.30;3.00;;;;;;;;;;143730;623;46020;-56
2021/12/08 01:55:27;;;;;;;3.50;3.10;;;;;;;;;;143733;621;46012;-56
2021/12/08 01:57:54;;;;;;;3.97;3.00;;;;;;;;;;143730;574;46023;-55
2021/12/08 02:00:30;;;;;;;4.40;3.50;;;;;;;;;;143727;586;46020;-56
2021/12/08 02:02:58;;;;;;;4.10;3.00;;;;;;;;;;143727;597;46020;-56
2021/12/08 02:05:26;;;;;;;3.65;3.35;;;;;;;;;;143733;571;46021;-56
2021/12/08 02:07:54;;;;;;;4.00;3.30;;;;;;;;;;143729;622;46022;-55
2021/12/08 02:10:22;;;;;;;3.85;3.25;;;;;;;;;;143727;622;46020;-56
2021/12/08 02:12:50;;;;;;;3.87;2.97;;;;;;;;;;143729;601;46012;-56
2021/12/08 02:15:17;;;;;;;5.37;2.95;;;;;;;;;;143732;577;46012;-57
2021/12/08 02:17:47;;;;;;;3.10;2.80;;;;;;;;;;143729;647;46022;-57
2021/12/08 02:20:16;;;;;;;3.08;2.75;;;;;;;;;;143727;603;46021;-56
2021/12/08 02:22:43;;;;;;;3.70;3.08;;;;;;;;;;143731;598;46012;-56
2021/12/08 02:25:14;;;;;;;3.72;3.10;;;;;;;;;;143733;576;46020;-56
2021/12/08 02:27:41;;;;;;;4.40;2.70;;;;;;;;;;143729;622;46023;-55
2021/12/08 02:30:19;;;;;;;3.92;2.92;;;;;;;;;;143729;637;46020;-55
2021/12/08 02:46:47;;;;;;;3.37;2.58;;;;;;;;;;143733;615;46020;-55
2021/12/08 02:49:15;;;;;;;13.43;3.97;;;;;;;;;;143728;642;47020;-55
2021/12/08 02:51:44;;;;;;;4.80;2.53;;;;;;;;;;143726;585;46020;-56
2021/12/08 02:54:12;;;;;;;3.85;3.00;;;;;;;;;;143728;573;46012;-55
2021/12/08 02:56:38;;;;;;;4.20;3.30;;;;;;;;;;143734;609;45032;-56
2021/12/08 02:59:05;;;;;;;6.05;3.22;;;;;;;;;;143730;591;46022;-55
2021/12/08 03:01:33;;;;;;;6.60;3.40;;;;;;;;;;143726;620;46020;-56
2021/12/08 03:04:01;;;;;;;8.25;3.00;;;;;;;;;;143729;575;46018;-55
2021/12/08 03:06:28;;;;;;;5.68;3.45;;;;;;;;;;143733;572;46020;-56
2021/12/08 03:08:55;;;;;;;4.28;3.12;;;;;;;;;;143731;571;46022;-56
2021/12/08 03:11:22;;;;;;;3.75;2.92;;;;;;;;;;143724;585;47013;-55
2021/12/08 03:14:12;;;;;;;5.32;3.17;;;;;;;;;;143728;569;46012;-57
2021/12/08 03:16:42;;;;;;;3.40;2.70;;;;;;;;;;143732;614;46020;-56
2021/12/08 03:19:09;;;;;;;6.62;3.80;;;;;;;;;;143731;589;46048;-56
2021/12/08 03:21:37;;;;;;;6.05;3.47;;;;;;;;;;143729;586;46020;-56
2021/12/08 03:24:18;;;;;;;5.37;2.90;;;;;;;;;;143730;605;46012;-54
2021/12/08 03:30:10;;;;;;;4.10;3.20;;;;;;;;;;143729;647;46024;-56
2021/12/08 03:32:38;;;;;;;3.60;3.30;;;;;;;;;;143725;615;47012;-55
2021/12/08 03:35:08;;;;;;;4.40;3.78;;;;;;;;;;143728;569;46012;-56
2021/12/08 03:37:39;;;;;;;4.22;3.47;;;;;;;;;;143733;703;46012;-55
2021/12/08 03:40:11;;;;;;;6.80;3.60;;;;;;;;;;143730;573;46022;-56
2021/12/08 03:42:39;;;;;;;6.70;3.62;;;;;;;;;;143727;649;46021;-56
2021/12/08 03:45:10;;;;;;;4.75;3.42;;;;;;;;;;143727;608;46012;-56
2021/12/08 03:47:42;;;;;;;3.97;3.33;;;;;;;;;;143733;571;46013;-56
2021/12/08 03:50:12;;;;;;;5.07;3.30;;;;;;;;;;143730;604;46023;-55
2021/12/08 03:52:40;;;;;;;5.62;3.55;;;;;;;;;;143729;583;46020;-56
2021/12/08 03:55:10;;;;;;;7.62;4.05;;;;;;;;;;143728;588;46013;-56
2021/12/08 03:57:37;;;;;;;4.65;3.70;;;;;;;;;;143728;569;46020;-55
2021/12/08 04:00:11;;;;;;;5.55;3.10;;;;;;;;;;143726;603;47022;-56
2021/12/08 04:02:38;;;;;;;7.80;3.75;;;;;;;;;;143725;650;47012;-55
2021/12/08 04:05:06;;;;;;;5.43;3.67;;;;;;;;;;143731;655;46012;-56
2021/12/08 04:07:36;;;;;;;4.05;3.50;;;;;;;;;;143732;577;46020;-57
2021/12/08 04:10:06;;;;;;;5.95;3.90;;;;;;;;;;143730;608;46022;-56
2021/12/08 04:12:33;;;;;;;7.57;3.85;;;;;;;;;;143727;582;46020;-56
2021/12/08 04:15:04;;;;;;;5.50;3.75;;;;;;;;;;143728;565;46012;-57
2021/12/08 04:17:41;;;;;;;6.45;3.90;;;;;;;;;;143732;710;46021;-56
2021/12/08 04:20:19;;;;;;;4.80;3.72;;;;;;;;;;143727;592;47023;-56
2021/12/08 04:22:50;;;;;;;4.72;3.50;;;;;;;;;;143729;607;46020;-54
2021/12/08 04:25:25;;;;;;;5.65;4.00;;;;;;;;;;143730;581;46012;-54
2021/12/08 04:27:54;;;;;;;;;;;;;;;;;;143732;982;46020;-57
2021/12/08 04:30:29;;;;;;;5.32;3.83;;;;;;;;;;143737;611;46022;-56
2021/12/08 04:32:56;;;;;;;6.40;3.90;;;;;;;;;;143729;650;46021;-55
2021/12/08 04:35:24;;;;;;;6.30;3.28;;;;;;;;;;143729;613;46012;-56
2021/12/08 04:37:55;;;;;;;4.50;3.53;;;;;;;;;;143733;574;46010;-56
2021/12/08 04:40:37;;;;;;;4.72;3.62;;;;;;;;;;143731;596;46022;-56
2021/12/08 04:43:18;;;;;;;4.18;3.35;;;;;;;;;;143729;712;46020;-57
2021/12/08 04:46:21;;;;;;;4.28;3.30;;;;;;;;;;143730;605;46020;-56
2021/12/08 04:49:04;;;;;;;4.30;3.22;;;;;;;;;;143731;630;46021;-56
2021/12/08 04:51:49;;;;;;;4.43;3.28;;;;;;;;;;143728;581;46022;-56
2021/12/08 05:08:35;;;;;;;6.55;4.35;;;;;;;;;;143756;632;45021;-56
2021/12/08 05:11:02;;;;;;;11.80;5.57;;;;;;;;;;143744;575;46021;-55
2021/12/08 05:13:29;;;;;;;7.93;5.28;;;;;;;;;;143756;595;45022;-54
2021/12/08 05:15:57;;;;;;;6.65;5.22;;;;;;;;;;143751;581;46013;-55
2021/12/08 05:18:31;;;;;;;7.43;4.82;;;;;;;;;;143756;718;45021;-55
2021/12/08 05:21:26;;;;;;;4.70;3.75;;;;;;;;;;143757;591;45020;-56
2021/12/08 05:23:58;;;;;;;6.07;3.87;;;;;;;;;;143756;571;45022;-55
2021/12/08 05:26:45;;;;;;;7.53;5.70;;;;;;;;;;143753;601;45020;-55
2021/12/08 05:29:21;;;;;;;6.85;4.65;;;;;;;;;;143755;570;45020;-57
2021/12/08 05:31:47;;;;;;;;;;;;;;;;;;143763;981;45020;-56
2021/12/08 05:34:15;;;;;;;8.35;5.53;;;;;;;;;;143762;581;45022;-56
2021/12/08 05:36:42;;;;;;;7.70;5.03;;;;;;;;;;143755;594;45917;-55
2021/12/08 05:39:17;;;;;;;6.68;4.70;;;;;;;;;;143754;607;45908;-56
2021/12/08 05:41:44;;;;;;;7.65;4.80;;;;;;;;;;143757;573;45020;-56
2021/12/08 05:44:12;;;;;;;8.77;5.53;;;;;;;;;;143755;709;45022;-56
2021/12/08 05:46:42;;;;;;;8.82;5.07;;;;;;;;;;143755;600;45918;-56
2021/12/08 05:49:12;;;;;;;15.10;5.70;;;;;;;;;;143753;581;46908;-57
2021/12/08 05:51:40;;;;;;;21.48;7.82;;;;;;;;;;143756;573;45020;-56
2021/12/08 05:54:13;;;;;;;14.30;6.45;;;;;;;;;;143757;583;45022;-55
2021/12/08 05:56:42;;;;;;;18.15;6.62;;;;;;;;;;143754;612;45918;-56
2021/12/08 05:59:11;;;;;;;22.92;7.07;;;;;;;;;;143755;578;45909;-55
2021/12/08 06:01:59;;;;;;;12.70;5.20;;;;;;;;;;143758;589;45021;-56
2021/12/08 06:04:29;;;;;;;8.90;4.62;;;;;;;;;;143738;630;46020;-57
2021/12/08 06:06:57;;;;;;;10.43;4.87;;;;;;;;;;143728;666;46020;-55
2021/12/08 06:09:26;;;;;;;15.30;7.03;;;;;;;;;;143728;578;46012;-56
2021/12/08 06:11:54;;;;;;;27.95;9.68;;;;;;;;;;143731;595;46020;-55
2021/12/08 06:14:25;;;;;;;14.68;6.95;;;;;;;;;;143728;572;46022;-56
2021/12/08 06:16:54;;;;;;;11.30;5.85;;;;;;;;;;143727;597;46021;-56
2021/12/08 06:19:22;;;;;;;10.88;6.18;;;;;;;;;;143728;580;46012;-55
2021/12/08 06:21:50;;;;;;;12.75;5.62;;;;;;;;;;143730;666;46012;-56
2021/12/08 06:24:18;;;;;;;10.80;5.32;;;;;;;;;;143723;581;46022;-54
2021/12/08 06:26:46;;;;;;;9.73;5.68;;;;;;;;;;143727;569;46020;-56
2021/12/08 06:29:17;;;;;;;9.85;5.25;;;;;;;;;;143728;585;46012;-56
2021/12/08 06:31:47;;;;;;;12.82;6.00;;;;;;;;;;143729;585;46021;-55
2021/12/08 06:34:14;;;;;;;11.10;5.00;;;;;;;;;;143728;594;46022;-56
2021/12/08 06:36:46;;;;;;;9.38;5.25;;;;;;;;;;143724;564;46020;-56
2021/12/08 06:39:25;;;;;;;9.95;5.65;;;;;;;;;;143726;659;46013;-57
2021/12/08 06:41:57;;;;;;;7.20;4.70;;;;;;;;;;143730;578;46020;-57
2021/12/08 06:44:39;;;;;;;13.52;7.93;;;;;;;;;;143727;607;46022;-57
2021/12/08 06:47:07;;;;;;;15.90;8.95;;;;;;;;;;143726;591;46021;-57
2021/12/08 06:49:35;;;;;;;43.80;27.17;;;;;;;;;;143727;619;46012;-55
2021/12/08 06:52:18;;;;;;;46.83;25.42;;;;;;;;;;143730;570;46020;-57
2021/12/08 06:54:49;;;;;;;33.50;19.55;;;;;;;;;;143727;587;46023;-55
2021/12/08 06:57:38;;;;;;;26.15;13.73;;;;;;;;;;143725;567;46020;-56
2021/12/08 07:00:21;;;;;;;15.05;9.20;;;;;;;;;;143725;625;46015;-55
2021/12/08 07:03:03;;;;;;;17.15;9.10;;;;;;;;;;143729;603;47021;-56
2021/12/08 07:06:03;;;;;;;25.90;13.38;;;;;;;;;;143754;591;45911;-55
2021/12/08 07:08:22;;;;;;;11.20;6.95;;;;;;;;;;143754;606;45013;-56
2021/12/08 07:10:53;;;;;;;8.63;6.18;;;;;;;;;;143753;612;45021;-55
2021/12/08 07:13:23;;;;;;;8.90;6.05;;;;;;;;;;143757;569;45020;-57
2021/12/08 07:16:12;;;;;;;11.60;6.47;;;;;;;;;;143756;594;45022;-57
2021/12/08 07:18:53;;;;;;;23.35;7.07;;;;;;;;;;143751;627;45918;-57
2021/12/08 07:21:24;;;;;;;12.70;5.75;;;;;;;;;;143742;577;46020;-57
2021/12/08 07:23:59;;;;;;;12.13;6.53;;;;;;;;;;143755;603;45021;-58
2021/12/08 07:26:30;;;;;;;18.73;11.80;;;;;;;;;;143756;573;45023;-57
2021/12/08 07:28:57;;;;;;;12.23;8.55;;;;;;;;;;143755;617;45918;-57
2021/12/08 07:31:32;;;;;;;11.00;6.85;;;;;;;;;;143752;631;45910;-57
2021/12/08 07:34:04;;;;;;;8.73;4.60;;;;;;;;;;143756;601;45020;-56
2021/12/08 07:36:34;;;;;;;9.63;4.72;;;;;;;;;;143755;569;45022;-57
2021/12/08 07:39:06;;;;;;;8.93;3.65;;;;;;;;;;143753;586;45918;-56
2021/12/08 07:41:40;;;;;;;9.85;6.07;;;;;;;;;;143754;607;45909;-57
2021/12/08 07:44:10;;;;;;;11.57;6.80;;;;;;;;;;143758;612;45020;-57
2021/12/08 07:46:51;;;;;;;18.27;9.68;;;;;;;;;;143755;580;45022;-57
2021/12/08 07:49:43;;;;;;;11.20;7.47;;;;;;;;;;143754;585;45020;-57
2021/12/08 07:52:19;;;;;;;7.10;3.65;;;;;;;;;;143753;570;45022;-57
2021/12/08 07:54:49;;;;;;;8.25;5.57;;;;;;;;;;143757;593;45021;-57
2021/12/08 07:57:21;;;;;;;19.73;8.73;;;;;;;;;;143756;589;45022;-58
2021/12/08 07:59:54;;;;;;;17.98;8.85;;;;;;;;;;143754;569;45918;-57
2021/12/08 08:02:25;;;;;;;16.08;7.93;;;;;;;;;;143754;602;45021;-57
2021/12/08 08:04:56;;;;;;;7.35;4.30;;;;;;;;;;143734;645;46020;-58
2021/12/08 08:07:23;;;;;;;8.88;4.75;;;;;;;;;;143728;570;46033;-56
2021/12/08 08:09:59;;;;;;;8.00;3.83;;;;;;;;;;143723;615;46021;-56
2021/12/08 08:12:29;;;;;;;10.60;5.80;;;;;;;;;;143729;625;46012;-57
2021/12/08 08:15:00;;;;;;;13.30;5.80;;;;;;;;;;143729;572;46020;-57
2021/12/08 08:17:36;;;;;;;5.82;3.75;;;;;;;;;;143727;569;46023;-57
2021/12/08 08:20:12;;;;;;;13.48;4.35;;;;;;;;;;143727;577;46020;-56
2021/12/08 08:22:40;;;;;;;12.13;4.07;;;;;;;;;;143727;573;46013;-57
2021/12/08 08:25:09;;;;;;;7.10;3.67;;;;;;;;;;143729;564;46021;-57
2021/12/08 08:27:37;;;;;;;8.23;3.62;;;;;;;;;;143727;582;46022;-57
2021/12/08 08:30:11;;;;;;;7.82;4.20;;;;;;;;;;143724;641;46021;-57
2021/12/08 08:32:41;;;;;;;5.93;3.53;;;;;;;;;;143727;580;46012;-57
2021/12/08 08:35:16;;;;;;;6.03;4.15;;;;;;;;;;143732;566;45020;-56
2021/12/08 08:37:44;;;;;;;9.95;5.20;;;;;;;;;;143727;600;46022;-55
2021/12/08 08:40:26;;;;;;;10.32;5.72;;;;;;;;;;143727;576;46020;-56
2021/12/08 08:42:54;;;;;;;11.15;5.22;;;;;;;;;;143720;573;48020;-56
2021/12/08 08:45:29;;;;;;;12.57;5.95;;;;;;;;;;143729;569;46020;-57
2021/12/08 08:48:07;;;;;;;6.27;3.87;;;;;;;;;;143727;583;46022;-57
2021/12/08 08:50:43;;;;;;;8.60;4.35;;;;;;;;;;143722;573;46020;-56
2021/12/08 08:53:10;;;;;;;6.82;4.00;;;;;;;;;;143728;580;46012;-57
2021/12/08 08:56:10;;;;;;;16.02;10.25;;;;;;;;;;143729;572;46020;-57
2021/12/08 08:58:39;;;;;;;24.85;13.48;;;;;;;;;;143727;626;46024;-58
2021/12/08 09:01:13;;;;;;;12.05;7.93;;;;;;;;;;143729;696;46021;-56
2021/12/08 09:03:45;;;;;;;10.13;6.65;;;;;;;;;;143725;605;46012;-57
2021/12/08 09:06:18;;;;;;;9.50;6.18;;;;;;;;;;143728;584;46020;-56
2021/12/08 09:08:46;;;;;;;9.90;5.62;;;;;;;;;;143726;686;46022;-57
2021/12/08 09:11:23;;;;;;;9.15;3.60;;;;;;;;;;143725;601;46020;-58
2021/12/08 09:14:03;;;;;;;9.43;4.00;;;;;;;;;;143727;584;46012;-59
2021/12/08 09:16:50;;;;;;;5.57;3.37;;;;;;;;;;143731;637;46021;-59
2021/12/08 09:19:23;;;;;;;7.50;4.18;;;;;;;;;;143729;599;46050;-59
2021/12/08 09:22:13;;;;;;;9.02;3.87;;;;;;;;;;143725;564;46028;-57
2021/12/08 09:24:54;;;;;;;10.20;4.70;;;;;;;;;;143723;578;47021;-59
2021/12/08 09:27:32;;;;;;;8.90;4.40;;;;;;;;;;143728;575;46042;-59
2021/12/08 09:30:33;;;;;;;6.72;3.45;;;;;;;;;;143727;586;46020;-58
2021/12/08 09:33:12;;;;;;;8.07;3.47;;;;;;;;;;143726;583;46023;-58
2021/12/08 09:35:44;;;;;;;10.60;4.50;;;;;;;;;;143726;578;46018;-59
2021/12/08 09:38:29;;;;;;;11.93;4.07;;;;;;;;;;143728;581;46023;-57
2021/12/08 09:41:09;;;;;;;9.93;4.43;;;;;;;;;;143727;618;46046;-56
2021/12/08 09:43:51;;;;;;;6.70;4.70;;;;;;;;;;143725;581;46030;-58
2021/12/08 09:46:30;;;;;;;8.02;4.57;;;;;;;;;;143725;583;46019;-57
2021/12/08 09:48:57;;;;;;;11.75;5.10;;;;;;;;;;143731;598;46022;-59
2021/12/08 09:51:26;;;;;;;7.45;4.20;;;;;;;;;;143724;566;47019;-59
2021/12/08 09:53:54;;;;;;;8.32;4.37;;;;;;;;;;143724;564;47012;-60
2021/12/08 09:56:24;;;;;;;5.75;3.58;;;;;;;;;;143725;569;46018;-58
2021/12/08 09:58:53;;;;;;;6.53;3.75;;;;;;;;;;143731;570;46013;-57
2021/12/08 10:01:21;;;;;;;10.15;4.87;;;;;;;;;;143727;585;46029;-58
2021/12/08 10:03:51;;;;;;;6.20;4.32;;;;;;;;;;143725;608;46031;-58
2021/12/08 10:06:20;;;;;;;35.25;22.45;;;;;;;;;;143727;605;46014;-58
2021/12/08 10:08:49;;;;;;;28.83;18.05;;;;;;;;;;143730;616;46012;-58
2021/12/08 10:11:18;;;;;;;38.22;25.12;;;;;;;;;;143726;612;46020;-58
2021/12/08 10:13:46;;;;;;;21.77;13.85;;;;;;;;;;143724;566;46023;-59
2021/12/08 10:16:15;;;;;;;16.02;11.40;;;;;;;;;;143726;569;46019;-59
2021/12/08 10:18:43;;;;;;;15.68;7.68;;;;;;;;;;143730;590;47012;-57
2021/12/08 10:21:11;;;;;;;11.48;7.18;;;;;;;;;;143727;588;46020;-58
2021/12/08 10:23:40;;;;;;;13.57;8.25;;;;;;;;;;143724;592;46023;-57
2021/12/08 10:26:13;;;;;;;9.90;6.30;;;;;;;;;;143728;612;46012;-56
2021/12/08 10:28:43;;;;;;;9.77;6.62;;;;;;;;;;143728;634;46022;-55
2021/12/08 10:31:34;;;;;;;6.57;4.28;;;;;;;;;;143726;589;46021;-56
2021/12/08 10:34:23;;;;;;;4.87;3.42;;;;;;;;;;143724;758;46022;-56
2021/12/08 10:37:14;;;;;;;6.30;4.65;;;;;;;;;;143726;589;46912;-57
2021/12/08 10:39:47;;;;;;;6.85;4.37;;;;;;;;;;143729;571;46022;-56
2021/12/08 10:42:31;;;;;;;6.47;4.35;;;;;;;;;;143727;607;46020;-57
2021/12/08 10:45:22;;;;;;;7.80;3.53;;;;;;;;;;143727;584;46023;-57
2021/12/08 10:47:54;;;;;;;8.55;4.53;;;;;;;;;;143727;595;46018;-56
2021/12/08 10:56:11;;;;;;;6.25;3.42;;;;;;;;;;143726;640;46022;-56
2021/12/08 10:58:43;;;;;;;6.62;2.90;;;;;;;;;;143727;564;46013;-56
2021/12/08 11:01:16;;;;;;;3.70;3.17;;;;;;;;;;143731;761;46012;-57
2021/12/08 11:03:44;;;;;;;3.97;2.97;;;;;;;;;;143727;791;46020;-57
2021/12/08 11:06:15;;;;;;;5.62;3.37;;;;;;;;;;143725;621;46023;-56
2021/12/08 11:08:47;;;;;;;8.52;5.62;;;;;;;;;;143727;607;46012;-57
2021/12/08 11:11:25;;;;;;;9.07;5.00;;;;;;;;;;143731;570;46022;-57
2021/12/08 11:13:58;;;;;;;6.40;4.00;;;;;;;;;;143729;569;46020;-56
2021/12/08 11:16:29;;;;;;;8.10;4.37;;;;;;;;;;143725;616;46022;-57
2021/12/08 11:19:13;;;;;;;5.40;4.07;;;;;;;;;;143727;785;46012;-55
2021/12/08 11:21:45;;;;;;;8.35;5.45;;;;;;;;;;143731;851;46012;-56
2021/12/08 11:24:19;;;;;;;7.35;4.85;;;;;;;;;;143729;803;46020;-57
2021/12/08 11:26:48;;;;;;;13.02;8.60;;;;;;;;;;143728;683;46022;-57
2021/12/08 11:29:20;;;;;;;17.65;10.73;;;;;;;;;;143729;573;46012;-57
2021/12/08 11:31:50;;;;;;;30.80;22.55;;;;;;;;;;143725;569;46022;-56
2021/12/08 11:34:27;;;;;;;18.65;12.10;;;;;;;;;;143728;569;46044;-55
2021/12/08 11:36:59;;;;;;;6.72;4.55;;;;;;;;;;143725;565;47012;-56
2021/12/08 11:39:52;;;;;;;11.60;8.18;;;;;;;;;;143729;689;46012;-57
2021/12/08 11:42:25;;;;;;;5.95;4.55;;;;;;;;;;143730;707;46013;-56
2021/12/08 11:44:57;;;;;;;12.77;4.43;;;;;;;;;;143728;674;46021;-56
2021/12/08 11:47:29;;;;;;;5.22;3.95;;;;;;;;;;143724;593;46041;-56
2021/12/08 11:49:59;;;;;;;8.82;5.00;;;;;;;;;;143728;594;46012;-55
2021/12/08 11:52:32;;;;;;;5.35;4.03;;;;;;;;;;143732;613;46021;-56
2021/12/08 11:55:12;;;;;;;4.72;3.55;;;;;;;;;;143728;589;46022;-56
2021/12/08 11:57:47;;;;;;;13.68;8.85;;;;;;;;;;143725;570;46021;-56
2021/12/08 12:00:21;;;;;;;11.05;5.90;;;;;;;;;;143727;581;46012;-56
2021/12/08 12:02:59;;;;;;;8.32;5.78;;;;;;;;;;143731;578;46018;-56
2021/12/08 12:05:32;;;;;;;9.85;6.05;;;;;;;;;;143756;621;45038;-54
2021/12/08 12:08:01;;;;;;;8.38;5.85;;;;;;;;;;143754;602;45922;-56
2021/12/08 12:10:32;;;;;;;7.90;5.47;;;;;;;;;;143755;565;45916;-57
2021/12/08 12:13:03;;;;;;;7.05;4.82;;;;;;;;;;143760;627;45018;-56
2021/12/08 12:15:31;;;;;;;6.68;4.50;;;;;;;;;;143757;627;45023;-56
2021/12/08 12:17:58;;;;;;;5.60;4.12;;;;;;;;;;143756;609;45921;-56
2021/12/08 12:20:42;;;;;;;6.12;3.42;;;;;;;;;;143752;641;45021;-55
2021/12/08 12:23:57;;;;;;;9.63;4.17;;;;;;;;;;143758;569;45021;-56
2021/12/08 12:27:00;;;;;;;6.57;4.82;;;;;;;;;;143754;580;46022;-56
2021/12/08 12:30:04;;;;;;;5.90;3.58;;;;;;;;;;143753;623;45924;-57
2021/12/08 12:32:53;;;;;;;6.80;4.00;;;;;;;;;;143754;630;45020;-56
2021/12/08 12:35:24;;;;;;;5.80;4.03;;;;;;;;;;143759;588;45013;-56
2021/12/08 12:38:08;;;;;;;9.48;4.93;;;;;;;;;;143757;578;45023;-56
2021/12/08 12:40:50;;;;;;;6.45;4.30;;;;;;;;;;143751;572;48012;-55
2021/12/08 12:43:35;;;;;;;6.72;3.90;;;;;;;;;;143754;614;45020;-55
2021/12/08 12:46:15;;;;;;;4.18;2.97;;;;;;;;;;143759;592;45033;-56
2021/12/08 12:48:44;;;;;;;3.80;2.83;;;;;;;;;;143756;589;46020;-55
2021/12/08 12:51:13;;;;;;;3.65;3.22;;;;;;;;;;143754;642;45920;-56
2021/12/08 12:53:56;;;;;;;3.97;2.85;;;;;;;;;;143756;599;45012;-56
2021/12/08 12:56:49;;;;;;;5.40;3.30;;;;;;;;;;143754;614;45020;-54
2021/12/08 12:59:20;;;;;;;6.37;4.10;;;;;;;;;;143758;577;45023;-55
2021/12/08 13:02:05;;;;;;;5.62;3.80;;;;;;;;;;143757;579;45020;-55
2021/12/08 13:04:35;;;;;;;3.97;3.33;;;;;;;;;;143737;571;46012;-56
2021/12/08 13:07:06;;;;;;;4.90;3.33;;;;;;;;;;143732;566;46012;-54
2021/12/08 13:09:52;;;;;;;5.80;3.92;;;;;;;;;;143729;701;46022;-56
2021/12/08 13:12:45;;;;;;;9.85;4.30;;;;;;;;;;143726;589;46021;-56
2021/12/08 13:15:25;;;;;;;5.00;3.37;;;;;;;;;;143728;573;46012;-55
2021/12/08 13:18:15;;;;;;;4.68;3.37;;;;;;;;;;143726;631;46020;-55
2021/12/08 13:20:47;;;;;;;7.22;3.33;;;;;;;;;;143729;594;46022;-54
2021/12/08 13:23:19;;;;;;;5.47;3.58;;;;;;;;;;143728;608;46020;-57
2021/12/08 13:25:56;;;;;;;5.57;3.90;;;;;;;;;;143728;609;46020;-56
2021/12/08 13:29:09;;;;;;;8.15;3.40;;;;;;;;;;143732;583;46013;-56
2021/12/08 13:31:58;;;;;;;8.00;3.72;;;;;;;;;;143728;588;47022;-55
2021/12/08 13:34:32;;;;;;;5.30;3.25;;;;;;;;;;143726;584;46918;-55
2021/12/08 13:37:23;;;;;;;10.02;4.47;;;;;;;;;;143729;602;46012;-55
2021/12/08 13:39:53;;;;;;;7.75;4.60;;;;;;;;;;143732;594;46012;-56
2021/12/08 13:42:30;;;;;;;4.57;3.42;;;;;;;;;;143728;576;47022;-56
2021/12/08 13:45:03;;;;;;;11.70;5.18;;;;;;;;;;143728;617;46029;-55
2021/12/08 13:47:42;;;;;;;8.70;4.75;;;;;;;;;;143728;646;46012;-56
2021/12/08 13:50:20;;;;;;;10.95;5.72;;;;;;;;;;143732;607;46013;-55
2021/12/08 13:53:08;;;;;;;6.12;4.22;;;;;;;;;;143729;733;46023;-56
2021/12/08 13:55:41;;;;;;;9.95;4.62;;;;;;;;;;143726;565;46020;-56
2021/12/08 13:58:17;;;;;;;5.47;3.60;;;;;;;;;;143729;714;46013;-56
2021/12/08 14:00:55;;;;;;;9.27;5.03;;;;;;;;;;143734;578;45032;-56
2021/12/08 14:03:34;;;;;;;9.65;4.50;;;;;;;;;;143730;569;46022;-56
2021/12/08 14:06:01;;;;;;;8.18;4.15;;;;;;;;;;143728;600;46020;-56
2021/12/08 14:08:34;;;;;;;5.55;3.08;;;;;;;;;;143728;717;46020;-56
2021/12/08 14:11:13;;;;;;;5.00;3.33;;;;;;;;;;143732;669;46012;-56
2021/12/08 14:13:43;;;;;;;9.32;4.22;;;;;;;;;;143729;619;46023;-56
2021/12/08 14:16:24;;;;;;;5.22;3.67;;;;;;;;;;143727;592;46020;-55
2021/12/08 14:18:56;;;;;;;7.65;3.90;;;;;;;;;;143727;589;46012;-56
2021/12/08 14:21:31;;;;;;;7.93;3.20;;;;;;;;;;143730;647;46021;-55
2021/12/08 14:24:04;;;;;;;11.85;4.60;;;;;;;;;;143729;592;46022;-56
2021/12/08 14:26:35;;;;;;;8.30;4.57;;;;;;;;;;143726;602;46020;-56
2021/12/08 14:29:13;;;;;;;7.57;4.30;;;;;;;;;;143731;595;46012;-56
2021/12/08 14:31:44;;;;;;;5.62;3.92;;;;;;;;;;143731;589;46020;-55
2021/12/08 14:34:28;;;;;;;10.32;4.28;;;;;;;;;;143729;577;46022;-56
2021/12/08 14:37:11;;;;;;;6.93;4.43;;;;;;;;;;143728;584;46020;-56
2021/12/08 14:39:41;;;;;;;6.82;4.10;;;;;;;;;;143728;608;46012;-56
2021/12/08 14:42:16;;;;;;;7.07;3.87;;;;;;;;;;143730;584;46020;-55
2021/12/08 14:44:49;;;;;;;6.20;3.70;;;;;;;;;;143730;566;46023;-57
2021/12/08 14:47:23;;;;;;;8.23;4.35;;;;;;;;;;143728;638;46020;-56
2021/12/08 14:49:59;;;;;;;18.70;5.45;;;;;;;;;;143730;692;46012;-55
2021/12/08 14:52:30;;;;;;;11.68;5.65;;;;;;;;;;143729;721;47020;-56
2021/12/08 14:54:59;;;;;;;8.48;5.10;;;;;;;;;;143728;579;47020;-55
2021/12/08 14:57:32;;;;;;;8.93;5.45;;;;;;;;;;143728;577;46021;-56
2021/12/08 15:00:08;;;;;;;7.62;4.70;;;;;;;;;;143729;662;46012;-56
2021/12/08 15:02:45;;;;;;;7.65;5.03;;;;;;;;;;143731;648;46020;-56
2021/12/08 15:05:20;;;;;;;9.15;5.65;;;;;;;;;;143729;661;46040;-56
2021/12/08 15:07:47;;;;;;;;;;;;;;;;;;143729;967;46035;-56
2021/12/08 15:10:18;;;;;;;11.93;7.12;;;;;;;;;;143738;598;46010;-55
2021/12/08 15:12:47;;;;;;;11.10;6.65;;;;;;;;;;143732;659;46020;-55
2021/12/08 15:15:32;;;;;;;10.45;5.80;;;;;;;;;;143730;621;46023;-55
2021/12/08 15:18:05;;;;;;;9.57;6.20;;;;;;;;;;143727;585;46020;-55
2021/12/08 15:20:36;;;;;;;8.57;5.10;;;;;;;;;;143727;583;46011;-56
2021/12/08 15:23:11;;;;;;;12.10;5.12;;;;;;;;;;143731;577;46020;-56
2021/12/08 15:25:43;;;;;;;8.23;5.43;;;;;;;;;;143730;573;46022;-56
2021/12/08 15:28:13;;;;;;;7.43;4.72;;;;;;;;;;143726;565;46021;-56
2021/12/08 15:30:47;;;;;;;12.37;4.57;;;;;;;;;;143729;647;46010;-56
2021/12/08 15:33:16;;;;;;;10.65;4.50;;;;;;;;;;143731;597;46020;-56
2021/12/08 15:35:47;;;;;;;8.48;4.87;;;;;;;;;;143729;579;46023;-55
2021/12/08 15:38:16;;;;;;;8.00;5.07;;;;;;;;;;143729;635;46020;-55
2021/12/08 15:40:52;;;;;;;7.43;4.45;;;;;;;;;;143730;575;46010;-56
2021/12/08 15:43:22;;;;;;;7.75;4.35;;;;;;;;;;143731;601;46021;-56
2021/12/08 15:45:55;;;;;;;8.93;4.37;;;;;;;;;;143728;610;46022;-56
2021/12/08 15:48:28;;;;;;;9.13;4.85;;;;;;;;;;143729;629;46030;-56
2021/12/08 15:51:04;;;;;;;11.00;5.32;;;;;;;;;;143728;579;46012;-56
2021/12/08 15:53:36;;;;;;;9.57;4.85;;;;;;;;;;143732;622;46020;-56
2021/12/08 15:56:09;;;;;;;11.82;4.82;;;;;;;;;;143729;639;46022;-56
2021/12/08 15:58:42;;;;;;;12.35;5.00;;;;;;;;;;143726;569;46020;-56
2021/12/08 16:01:13;;;;;;;9.35;4.53;;;;;;;;;;143728;650;46010;-55